createdAt,value
2017-09-20T00:02:33.791Z,99.99
2017-09-20T00:12:33.858Z,99.99
2017-09-20T00:22:33.753Z,99.99
2017-09-20T00:32:33.882Z,99.99
2017-09-20T00:42:33.762Z,99.99
2017-09-20T00:52:33.781Z,99.99
2017-09-20T01:02:33.887Z,99.99
2017-09-20T01:12:33.772Z,99.99
2017-09-20T01:22:33.749Z,99.99
2017-09-20T01:32:33.740Z,99.99
2017-09-20T01:42:33.861Z,99.99
2017-09-20T01:52:33.826Z,99.99
2017-09-20T02:02:33.816Z,99.99
2017-09-20T02:12:33.851Z,99.99
2017-09-20T02:22:33.759Z,99.99
2017-09-20T02:32:33.756Z,99.99
2017-09-20T02:42:33.798Z,99.99
2017-09-20T02:52:33.746Z,99.99
2017-09-20T03:02:33.881Z,99.99
2017-09-20T03:12:33.710Z,99.99
2017-09-20T03:22:33.724Z,99.99
2017-09-20T03:32:33.810Z,99.99
2017-09-20T03:42:33.788Z,99.99
2017-09-20T03:52:33.749Z,99.99
2017-09-20T04:02:33.820Z,99.99
2017-09-20T04:12:33.810Z,99.99
2017-09-20T04:22:33.858Z,99.99
2017-09-20T04:32:33.801Z,99.99
2017-09-20T04:42:33.810Z,99.99
2017-09-20T04:52:33.829Z,99.99
2017-09-20T05:02:33.762Z,99.99
2017-09-20T05:12:33.861Z,99.99
2017-09-20T05:22:33.866Z,99.99
2017-09-20T05:32:33.809Z,99.99
2017-09-20T05:42:33.846Z,99.99
2017-09-20T05:52:33.968Z,99.99
2017-09-20T06:02:33.854Z,99.99
2017-09-20T06:12:33.839Z,99.99
2017-09-20T06:22:33.826Z,99.99
2017-09-20T06:32:33.854Z,99.99
2017-09-20T06:42:33.861Z,99.99
2017-09-20T06:52:33.867Z,99.99
2017-09-20T07:02:33.874Z,99.99
2017-09-20T07:12:33.880Z,99.99
2017-09-20T07:22:33.874Z,99.99
2017-09-20T07:32:33.880Z,99.99
2017-09-20T07:42:33.877Z,99.99
2017-09-20T07:52:33.983Z,99.99
2017-09-20T08:02:33.933Z,99.99
2017-09-20T08:12:33.939Z,99.99
2017-09-20T08:22:33.928Z,99.99
2017-09-20T08:32:33.932Z,99.99
2017-09-20T08:42:33.949Z,99.99
2017-09-20T08:52:33.978Z,99.99
2017-09-20T09:02:33.983Z,99.99
2017-09-20T09:12:33.991Z,99.99
2017-09-20T09:22:34.651Z,99.99
2017-09-20T09:32:34.008Z,99.99
2017-09-20T09:42:34.016Z,99.99
2017-09-20T09:52:34.021Z,99.99
2017-09-20T10:02:34.768Z,99.99
2017-09-20T10:12:34.022Z,99.99
2017-09-20T10:22:34.035Z,99.99
2017-09-20T10:32:34.133Z,99.99
2017-09-20T10:42:34.173Z,99.99
2017-09-20T10:52:34.051Z,99.99
2017-09-20T11:02:34.026Z,99.99
2017-09-20T11:12:34.042Z,96.47
2017-09-20T11:22:34.025Z,99.99
2017-09-20T11:32:34.052Z,96.56
2017-09-20T11:42:34.050Z,97.04
2017-09-20T11:52:34.031Z,95.31
2017-09-20T12:02:34.045Z,98.91
2017-09-20T12:12:34.373Z,99.99
2017-09-20T12:22:34.134Z,99.99
2017-09-20T12:32:34.134Z,99.99
2017-09-20T12:42:34.035Z,99.99
2017-09-20T12:52:34.057Z,99.99
2017-09-20T13:02:34.373Z,99.99
2017-09-20T13:12:34.100Z,99.99
2017-09-20T13:22:34.803Z,99.99
2017-09-20T13:32:34.134Z,99.99
2017-09-20T13:42:34.179Z,99.99
2017-09-20T13:52:34.071Z,99.99
2017-09-20T14:02:34.129Z,99.99
2017-09-20T14:12:34.050Z,99.99
2017-09-20T14:22:34.327Z,99.99
2017-09-20T14:32:34.064Z,95.79
2017-09-20T14:42:34.164Z,97.04
2017-09-20T14:52:34.048Z,97.28
2017-09-20T15:02:34.155Z,97.56
2017-09-20T15:12:34.081Z,96.18
2017-09-20T15:22:34.123Z,95.79
2017-09-20T15:32:34.065Z,95.6
2017-09-20T15:42:35.129Z,97.04
2017-09-20T15:52:36.132Z,99.99
2017-09-20T16:02:34.074Z,99.99
2017-09-20T16:12:35.141Z,99.99
2017-09-20T16:22:34.083Z,99.99
2017-09-20T16:32:42.441Z,99.99
2017-09-20T16:42:40.872Z,99.99
2017-09-20T16:52:34.081Z,99.99
2017-09-20T17:02:34.065Z,99.99
2017-09-20T17:12:35.070Z,99.99
2017-09-20T17:22:34.066Z,99.99
2017-09-20T17:32:35.175Z,99.99
2017-09-20T17:42:34.064Z,99.99
2017-09-20T17:52:39.182Z,99.99
2017-09-20T18:02:34.061Z,99.99
2017-09-20T18:12:35.250Z,99.99
2017-09-20T18:22:35.170Z,99.99
2017-09-20T18:32:34.053Z,99.99
2017-09-20T18:42:34.078Z,99.99
2017-09-20T18:52:34.113Z,99.99
2017-09-20T19:02:37.548Z,99.99
2017-09-20T19:12:34.117Z,99.99
2017-09-20T19:22:34.084Z,99.99
2017-09-20T19:32:34.084Z,99.99
2017-09-20T19:42:36.104Z,99.99
2017-09-20T19:52:34.303Z,99.99
2017-09-20T20:02:34.078Z,99.99
2017-09-20T20:12:34.070Z,99.99
2017-09-20T20:22:34.107Z,99.99
2017-09-20T20:32:34.352Z,99.99
2017-09-20T20:42:34.107Z,99.99
2017-09-20T20:52:34.231Z,99.99
2017-09-20T21:02:34.309Z,99.99
2017-09-20T21:12:34.372Z,99.99
2017-09-20T21:22:34.135Z,99.99
2017-09-20T21:32:34.177Z,99.99
2017-09-20T21:42:34.173Z,99.99
2017-09-20T21:52:34.139Z,99.99
2017-09-20T22:02:34.033Z,99.99
2017-09-20T22:12:34.150Z,99.99
2017-09-20T22:22:34.778Z,99.99
2017-09-20T22:32:34.051Z,99.99
2017-09-20T22:42:34.154Z,99.99
2017-09-20T22:52:34.049Z,99.99
2017-09-20T23:02:34.129Z,99.99
2017-09-20T23:12:34.166Z,99.99
2017-09-20T23:22:34.038Z,99.99
2017-09-20T23:32:34.102Z,99.99
2017-09-20T23:42:34.842Z,99.99
2017-09-20T23:52:34.026Z,99.99
